^^
Grace C. Lehan Memorial Weather Station Historical Data
Daily Summary for March 4, 2022 Units:  Both    English   Metric
Daily Weekly Monthly Yearly
  High: Low: Average:
Temperature: 73 °F /  22.8 °C 45.2 °F /  7.3 °C 59.5 °F /  15.3 °C
Dew Point: 58.5 °F /  14.7 °C 43.9 °F /  6.6 °C 52.7 °F /  11.5 °C
Humidity: 97% 56.4% 80%
Wind Speed: 2.9mph /  4.7km/h - 0.3mph /  0.5km/h
Wind Gust: 14mph /  22.5km/h - -
Wind- - SW
Pressure: 30.36 in /  1028 hPa 30.24 in /  1023.9 hPa -
Precipitation: 0.00 in /  0 mm    
 
 
Tabular Data for March 4, 2022
Time Temperature Dew Point Pressure Wind Wind Speed Wind Gust Humidity Rainfall Rate (Hourly) solar
00:00 50 °F /  10 °C 46.9 °F /  8.3 °C 30.34in /  1027.3hPa Calm     89% 0.00in /  0mm 0 W/m2
00:09 49.8 °F /  9.9 °C 46.7 °F /  8.2 °C 30.34in /  1027.3hPa Calm     89% 0.00in /  0mm 0 W/m2
00:14 49.8 °F /  9.9 °C 47 °F /  8.3 °C 30.34in /  1027.3hPa Calm     90% 0.00in /  0mm 0 W/m2
00:19 49.8 °F /  9.9 °C 46.9 °F /  8.3 °C 30.34in /  1027.3hPa Calm     90% 0.00in /  0mm 0 W/m2
00:24 49.7 °F /  9.8 °C 46.8 °F /  8.2 °C 30.34in /  1027.3hPa Calm     90% 0.00in /  0mm 0 W/m2
00:29 49.4 °F /  9.7 °C 46.6 °F /  8.1 °C 30.34in /  1027.3hPa Calm     90% 0.00in /  0mm 0 W/m2
00:34 49.2 °F /  9.6 °C 46.4 °F /  8 °C 30.34in /  1027.3hPa Calm     90% 0.00in /  0mm 0 W/m2
00:39 49.2 °F /  9.6 °C 46.6 °F /  8.1 °C 30.34in /  1027.3hPa Calm     90.7% 0.00in /  0mm 0 W/m2
00:44 49.7 °F /  9.8 °C 47.4 °F /  8.6 °C 30.33in /  1027hPa Calm     91.8% 0.00in /  0mm 0 W/m2
00:49 49.8 °F /  9.9 °C 47.5 °F /  8.6 °C 30.33in /  1027hPa Calm     91.8% 0.00in /  0mm 0 W/m2
00:54 49.6 °F /  9.8 °C 47.1 °F /  8.4 °C 30.33in /  1027hPa Calm     91% 0.00in /  0mm 0 W/m2
00:59 49.4 °F /  9.7 °C 46.9 °F /  8.3 °C 30.33in /  1027hPa Calm     91% 0.00in /  0mm 0 W/m2
01:04 49.1 °F /  9.5 °C 46.6 °F /  8.1 °C 30.33in /  1027hPa Calm     91% 0.00in /  0mm 0 W/m2
01:09 48.9 °F /  9.4 °C 46.4 °F /  8 °C 30.33in /  1027hPa Calm     91% 0.00in /  0mm 0 W/m2
01:14 48.7 °F /  9.3 °C 46.2 °F /  7.9 °C 30.33in /  1027hPa Calm     91% 0.00in /  0mm 0 W/m2
01:19 48.7 °F /  9.3 °C 46.4 °F /  8 °C 30.33in /  1027hPa Calm     91.4% 0.00in /  0mm 0 W/m2
01:24 48.8 °F /  9.3 °C 46.5 °F /  8.1 °C 30.33in /  1027hPa Calm     92% 0.00in /  0mm 0 W/m2
01:29 48.7 °F /  9.3 °C 46.5 °F /  8.1 °C 30.33in /  1027hPa Calm     92% 0.00in /  0mm 0 W/m2
01:34 48.6 °F /  9.2 °C 46.4 °F /  8 °C 30.33in /  1027hPa Calm     92% 0.00in /  0mm 0 W/m2
01:39 48.7 °F /  9.3 °C 46.6 °F /  8.1 °C 30.33in /  1027hPa Calm     92.3% 0.00in /  0mm 0 W/m2
01:44 48.9 °F /  9.4 °C 46.9 °F /  8.3 °C 30.33in /  1027hPa Calm     93% 0.00in /  0mm 0 W/m2
01:49 49.1 °F /  9.5 °C 47.1 °F /  8.4 °C 30.33in /  1027hPa Calm     93% 0.00in /  0mm 0 W/m2
01:54 49.3 °F /  9.6 °C 47.4 °F /  8.6 °C 30.33in /  1027hPa Calm     93.1% 0.00in /  0mm 0 W/m2
01:59 49.6 °F /  9.8 °C 47.8 °F /  8.8 °C 30.32in /  1026.6hPa Calm     93.5% 0.00in /  0mm 0 W/m2
02:04 49.6 °F /  9.8 °C 47.9 °F /  8.8 °C 30.32in /  1026.6hPa Calm     93.9% 0.00in /  0mm 0 W/m2
02:09 49.6 °F /  9.8 °C 47.7 °F /  8.7 °C 30.32in /  1026.6hPa Calm     93% 0.00in /  0mm 0 W/m2
02:14 49.5 °F /  9.7 °C 47.5 °F /  8.6 °C 30.32in /  1026.6hPa Calm     93% 0.00in /  0mm 0 W/m2
02:19 49.4 °F /  9.7 °C 47.5 °F /  8.6 °C 30.32in /  1026.6hPa Calm     93% 0.00in /  0mm 0 W/m2
02:24 49.3 °F /  9.6 °C 47.4 °F /  8.6 °C 30.32in /  1026.6hPa Calm     93% 0.00in /  0mm 0 W/m2
02:29 49.2 °F /  9.6 °C 47.3 °F /  8.5 °C 30.32in /  1026.6hPa Calm     93% 0.00in /  0mm 0 W/m2
02:34 49.1 °F /  9.5 °C 47.2 °F /  8.4 °C 30.32in /  1026.6hPa Calm     93.1% 0.00in /  0mm 0 W/m2
02:39 49.2 °F /  9.6 °C 47.6 °F /  8.7 °C 30.32in /  1026.6hPa Calm     94% 0.00in /  0mm 0 W/m2
02:44 49.3 °F /  9.6 °C 47.6 °F /  8.7 °C 30.32in /  1026.6hPa Calm     94% 0.00in /  0mm 0 W/m2
02:49 49.2 °F /  9.6 °C 47.6 °F /  8.7 °C 30.32in /  1026.6hPa Calm     94% 0.00in /  0mm 0 W/m2
02:54 49 °F /  9.4 °C 47.3 °F /  8.5 °C 30.32in /  1026.6hPa Calm     93.7% 0.00in /  0mm 0 W/m2
02:59 48.7 °F /  9.3 °C 46.8 °F /  8.2 °C 30.32in /  1026.6hPa Calm     93% 0.00in /  0mm 0 W/m2
03:04 48.5 °F /  9.2 °C 46.6 °F /  8.1 °C 30.32in /  1026.6hPa Calm     93% 0.00in /  0mm 0 W/m2
03:09 48.2 °F /  9 °C 46.4 °F /  8 °C 30.31in /  1026.3hPa Calm     93.2% 0.00in /  0mm 0 W/m2
03:14 48.1 °F /  8.9 °C 46.4 °F /  8 °C 30.31in /  1026.3hPa Calm     93.6% 0.00in /  0mm 0 W/m2
03:19 48 °F /  8.9 °C 46.1 °F /  7.8 °C 30.31in /  1026.3hPa Calm     93% 0.00in /  0mm 0 W/m2
03:24 47.9 °F /  8.8 °C 46.3 °F /  7.9 °C 30.31in /  1026.3hPa Calm     94% 0.00in /  0mm 0 W/m2
03:26 48 °F /  8.9 °C 46.4 °F /  8 °C 30.31in /  1026.3hPa Calm     94% 0.00in /  0mm 0 W/m2
03:30 48.2 °F /  9 °C 46.6 °F /  8.1 °C 30.32in /  1026.6hPa Calm     94% 0.00in /  0mm 0 W/m2
04:04 47.5 °F /  8.6 °C 45.8 °F /  7.7 °C 30.32in /  1026.6hPa Calm     94% 0.00in /  0mm 0 W/m2
04:09 47.4 °F /  8.6 °C 45.7 °F /  7.6 °C 30.33in /  1027hPa Calm     94% 0.00in /  0mm 0 W/m2
04:14 47.2 °F /  8.4 °C 45.6 °F /  7.6 °C 30.32in /  1026.6hPa Calm     94% 0.00in /  0mm 0 W/m2
04:19 47.1 °F /  8.4 °C 45.5 °F /  7.5 °C 30.32in /  1026.6hPa Calm     94% 0.00in /  0mm 0 W/m2
04:24 47 °F /  8.3 °C 45.3 °F /  7.4 °C 30.32in /  1026.6hPa Calm     94% 0.00in /  0mm 0 W/m2
04:29 46.8 °F /  8.2 °C 45.2 °F /  7.3 °C 30.32in /  1026.6hPa Calm     94% 0.00in /  0mm 0 W/m2
04:34 46.7 °F /  8.2 °C 45.1 °F /  7.3 °C 30.32in /  1026.6hPa Calm     94% 0.00in /  0mm 0 W/m2
04:39 46.9 °F /  8.3 °C 45.5 °F /  7.5 °C 30.32in /  1026.6hPa Calm     94.8% 0.00in /  0mm 0 W/m2
04:44 47.4 °F /  8.6 °C 46 °F /  7.8 °C 30.32in /  1026.6hPa Calm     95% 0.00in /  0mm 0 W/m2
04:49 47.8 °F /  8.8 °C 46.4 °F /  8 °C 30.31in /  1026.3hPa South 0.1mph /  0.2km/h 2mph /  3.2km/h 95% 0.00in /  0mm 0 W/m2
04:54 47.9 °F /  8.8 °C 46.5 °F /  8.1 °C 30.31in /  1026.3hPa Calm   2mph /  3.2km/h 95% 0.00in /  0mm 0 W/m2
04:59 47.7 °F /  8.7 °C 46.3 °F /  7.9 °C 30.31in /  1026.3hPa Calm   2mph /  3.2km/h 95% 0.00in /  0mm 0 W/m2
05:04 47.5 °F /  8.6 °C 46.2 °F /  7.9 °C 30.31in /  1026.3hPa Calm   2mph /  3.2km/h 95% 0.00in /  0mm 0 W/m2
05:09 47.4 °F /  8.6 °C 46.1 °F /  7.8 °C 30.31in /  1026.3hPa Calm     95% 0.00in /  0mm 0 W/m2
05:14 47.4 °F /  8.6 °C 46 °F /  7.8 °C 30.31in /  1026.3hPa Calm     95% 0.00in /  0mm 0 W/m2
05:19 47.3 °F /  8.5 °C 45.9 °F /  7.7 °C 30.31in /  1026.3hPa Calm     95% 0.00in /  0mm 0 W/m2
05:24 47.2 °F /  8.4 °C 45.8 °F /  7.7 °C 30.31in /  1026.3hPa Calm     95% 0.00in /  0mm 0 W/m2
05:29 47 °F /  8.3 °C 45.7 °F /  7.6 °C 30.31in /  1026.3hPa Calm     95% 0.00in /  0mm 0 W/m2
05:34 46.9 °F /  8.3 °C 45.6 °F /  7.6 °C 30.31in /  1026.3hPa Calm     95% 0.00in /  0mm 0 W/m2
05:39 46.8 °F /  8.2 °C 45.4 °F /  7.4 °C 30.31in /  1026.3hPa Calm     95% 0.00in /  0mm 0 W/m2
05:44 46.6 °F /  8.1 °C 45.2 °F /  7.3 °C 30.32in /  1026.6hPa Calm     95% 0.00in /  0mm 0 W/m2
05:49 46.4 °F /  8 °C 45.1 °F /  7.3 °C 30.32in /  1026.6hPa Calm     95% 0.00in /  0mm 0 W/m2
05:54 46.3 °F /  7.9 °C 45 °F /  7.2 °C 30.32in /  1026.6hPa Calm     95% 0.00in /  0mm 0 W/m2
05:59 46.3 °F /  7.9 °C 45 °F /  7.2 °C 30.32in /  1026.6hPa Calm     95% 0.00in /  0mm 0 W/m2
06:04 46.3 °F /  7.9 °C 45 °F /  7.2 °C 30.32in /  1026.6hPa Calm     95% 0.00in /  0mm 0 W/m2
06:09 46.3 °F /  7.9 °C 45 °F /  7.2 °C 30.32in /  1026.6hPa Calm     95% 0.00in /  0mm 0 W/m2
06:14 46.4 °F /  8 °C 45 °F /  7.2 °C 30.32in /  1026.6hPa Calm     95% 0.00in /  0mm 0 W/m2
06:19 46.3 °F /  7.9 °C 45 °F /  7.2 °C 30.32in /  1026.6hPa Calm     95% 0.00in /  0mm 0 W/m2
06:24 46.3 °F /  7.9 °C 45 °F /  7.2 °C 30.32in /  1026.6hPa Calm     95% 0.00in /  0mm 0 W/m2
06:29 46.3 °F /  7.9 °C 45 °F /  7.2 °C 30.32in /  1026.6hPa Calm     95% 0.00in /  0mm 0 W/m2
06:34 46.2 °F /  7.9 °C 44.9 °F /  7.2 °C 30.32in /  1026.6hPa Calm     95% 0.00in /  0mm 0 W/m2
06:37 46.2 °F /  7.9 °C 44.8 °F /  7.1 °C 30.32in /  1026.6hPa Calm     95% 0.00in /  0mm 0 W/m2
07:00 45.8 °F /  7.7 °C 44.5 °F /  6.9 °C 30.32in /  1026.6hPa Calm     95% 0.00in /  0mm 0 W/m2
07:30 45.2 °F /  7.3 °C 43.9 °F /  6.6 °C 30.32in /  1026.6hPa Calm     95% 0.00in /  0mm 0 W/m2
08:04 45.4 °F /  7.4 °C 44.3 °F /  6.8 °C 30.34in /  1027.3hPa Calm     95.9% 0.00in /  0mm 39 W/m2
08:09 45.6 °F /  7.6 °C 44.5 °F /  6.9 °C 30.34in /  1027.3hPa Calm     96% 0.00in /  0mm 39 W/m2
08:14 45.8 °F /  7.7 °C 44.7 °F /  7.1 °C 30.34in /  1027.3hPa Calm     96% 0.00in /  0mm 53 W/m2
08:19 46 °F /  7.8 °C 45 °F /  7.2 °C 30.34in /  1027.3hPa Calm     96% 0.00in /  0mm 60 W/m2
08:24 46.4 °F /  8 °C 45.3 °F /  7.4 °C 30.34in /  1027.3hPa Calm     96% 0.00in /  0mm 58 W/m2
08:29 46.6 °F /  8.1 °C 45.6 °F /  7.6 °C 30.34in /  1027.3hPa Calm     96% 0.00in /  0mm 69 W/m2
08:34 47 °F /  8.3 °C 45.9 °F /  7.7 °C 30.34in /  1027.3hPa Calm     96% 0.00in /  0mm 100 W/m2
08:39 47.4 °F /  8.6 °C 46.3 °F /  7.9 °C 30.34in /  1027.3hPa Calm     96% 0.00in /  0mm 118 W/m2
08:44 48 °F /  8.9 °C 46.9 °F /  8.3 °C 30.34in /  1027.3hPa Calm     96% 0.00in /  0mm 139 W/m2
08:49 48.4 °F /  9.1 °C 47.3 °F /  8.5 °C 30.34in /  1027.3hPa Calm     96% 0.00in /  0mm 151 W/m2
08:54 48.9 °F /  9.4 °C 48 °F /  8.9 °C 30.34in /  1027.3hPa Calm     96.7% 0.00in /  0mm 195 W/m2
08:59 49.6 °F /  9.8 °C 48.7 °F /  9.3 °C 30.34in /  1027.3hPa Calm     96.7% 0.00in /  0mm 230 W/m2
09:04 50.4 °F /  10.2 °C 49.6 °F /  9.8 °C 30.34in /  1027.3hPa Calm     97% 0.00in /  0mm 260 W/m2
09:09 51.3 °F /  10.7 °C 50.5 °F /  10.3 °C 30.35in /  1027.7hPa Calm     97% 0.00in /  0mm 272 W/m2
09:14 52.1 °F /  11.2 °C 51.2 °F /  10.7 °C 30.35in /  1027.7hPa Calm     97% 0.00in /  0mm 283 W/m2
09:19 52.6 °F /  11.4 °C 51.8 °F /  11 °C 30.35in /  1027.7hPa Calm   1mph /  1.6km/h 97% 0.00in /  0mm 297 W/m2
09:24 52.8 °F /  11.6 °C 52 °F /  11.1 °C 30.35in /  1027.7hPa Calm   1mph /  1.6km/h 97% 0.00in /  0mm 309 W/m2
09:29 53.4 °F /  11.9 °C 52.6 °F /  11.4 °C 30.35in /  1027.7hPa Calm   1mph /  1.6km/h 97% 0.00in /  0mm 320 W/m2
09:34 54.2 °F /  12.3 °C 53.4 °F /  11.9 °C 30.35in /  1027.7hPa Calm   1mph /  1.6km/h 97% 0.00in /  0mm 332 W/m2
09:39 55.2 °F /  12.9 °C 54.3 °F /  12.4 °C 30.35in /  1027.7hPa Calm     97% 0.00in /  0mm 346 W/m2
09:44 55.9 °F /  13.3 °C 55.1 °F /  12.8 °C 30.35in /  1027.7hPa Calm     97% 0.00in /  0mm 360 W/m2
09:49 56.6 °F /  13.7 °C 55.7 °F /  13.2 °C 30.35in /  1027.7hPa Calm     97% 0.00in /  0mm 367 W/m2
09:54 57.4 °F /  14.1 °C 56.5 °F /  13.6 °C 30.35in /  1027.7hPa Calm     96.7% 0.00in /  0mm 373 W/m2
09:59 58 °F /  14.4 °C 56.6 °F /  13.7 °C 30.35in /  1027.7hPa Calm     95.1% 0.00in /  0mm 387 W/m2
10:04 58.6 °F /  14.8 °C 56.4 °F /  13.6 °C 30.36in /  1028hPa Calm     92.4% 0.00in /  0mm 401 W/m2
10:09 58.4 °F /  14.7 °C 55 °F /  12.8 °C 30.36in /  1028hPa Calm     88.5% 0.00in /  0mm 411 W/m2
10:14 58.2 °F /  14.6 °C 54.7 °F /  12.6 °C 30.35in /  1027.7hPa Calm     88% 0.00in /  0mm 417 W/m2
10:19 58.6 °F /  14.8 °C 55.1 °F /  12.8 °C 30.35in /  1027.7hPa Calm     88% 0.00in /  0mm 417 W/m2
10:24 58.9 °F /  14.9 °C 55.1 °F /  12.8 °C 30.35in /  1027.7hPa Calm     87.2% 0.00in /  0mm 188 W/m2
10:29 58.9 °F /  14.9 °C 55 °F /  12.8 °C 30.35in /  1027.7hPa Calm     87% 0.00in /  0mm 434 W/m2
10:34 58.8 °F /  14.9 °C 55 °F /  12.8 °C 30.35in /  1027.7hPa Calm     87% 0.00in /  0mm 455 W/m2
10:39 59 °F /  15 °C 55.2 °F /  12.9 °C 30.35in /  1027.7hPa Calm     87% 0.00in /  0mm 462 W/m2
10:44 59.2 °F /  15.1 °C 55.2 °F /  12.9 °C 30.34in /  1027.3hPa Calm     86.5% 0.00in /  0mm 475 W/m2
10:49 59.5 °F /  15.3 °C 55.4 °F /  13 °C 30.34in /  1027.3hPa SSE 0.1mph /  0.2km/h 2mph /  3.2km/h 86.2% 0.00in /  0mm 483 W/m2
10:54 59.9 °F /  15.5 °C 56 °F /  13.3 °C 30.34in /  1027.3hPa SSE 0.6mph /  1km/h 4mph /  6.4km/h 86.7% 0.00in /  0mm 494 W/m2
10:59 60.5 °F /  15.8 °C 56.2 °F /  13.4 °C 30.34in /  1027.3hPa SSE 0.7mph /  1.1km/h 5mph /  8km/h 85.7% 0.00in /  0mm 450 W/m2
11:04 60.9 °F /  16.1 °C 56.4 °F /  13.6 °C 30.34in /  1027.3hPa Calm   5mph /  8km/h 85% 0.00in /  0mm 387 W/m2
11:09 61.4 °F /  16.3 °C 56.9 °F /  13.8 °C 30.34in /  1027.3hPa SW 0.6mph /  1km/h 6mph /  9.7km/h 85.1% 0.00in /  0mm 497 W/m2
11:14 62.3 °F /  16.8 °C 57.6 °F /  14.2 °C 30.34in /  1027.3hPa Calm   6mph /  9.7km/h 84.5% 0.00in /  0mm 515 W/m2
11:19 63.6 °F /  17.6 °C 57.6 °F /  14.2 °C 30.34in /  1027.3hPa WSW 0.8mph /  1.3km/h 6mph /  9.7km/h 80.7% 0.00in /  0mm 531 W/m2
11:24 65.1 °F /  18.4 °C 57.6 °F /  14.2 °C 30.33in /  1027hPa WSW 0.9mph /  1.4km/h 9mph /  14.5km/h 76.6% 0.00in /  0mm 517 W/m2
11:29 66.3 °F /  19.1 °C 57.5 °F /  14.2 °C 30.33in /  1027hPa WSW 1.2mph /  1.9km/h 11mph /  17.7km/h 73.4% 0.00in /  0mm 548 W/m2
11:34 67.3 °F /  19.6 °C 57.8 °F /  14.3 °C 30.33in /  1027hPa SW 0.2mph /  0.3km/h 11mph /  17.7km/h 71.6% 0.00in /  0mm 555 W/m2
11:39 68.1 °F /  20.1 °C 57.5 °F /  14.2 °C 30.33in /  1027hPa SW 0.4mph /  0.6km/h 4mph /  6.4km/h 68.8% 0.00in /  0mm 527 W/m2
11:44 68.4 °F /  20.2 °C 57 °F /  13.9 °C 30.33in /  1027hPa SW 0.2mph /  0.3km/h 4mph /  6.4km/h 66.8% 0.00in /  0mm 306 W/m2
11:49 68.5 °F /  20.3 °C 57.1 °F /  13.9 °C 30.33in /  1027hPa SW 0.4mph /  0.6km/h 4mph /  6.4km/h 66.9% 0.00in /  0mm 410 W/m2
11:54 68.5 °F /  20.3 °C 56.9 °F /  13.8 °C 30.33in /  1027hPa WSW 0.8mph /  1.3km/h 9mph /  14.5km/h 66.5% 0.00in /  0mm 394 W/m2
11:59 68.5 °F /  20.3 °C 56.7 °F /  13.7 °C 30.33in /  1027hPa SW 0.7mph /  1.1km/h 9mph /  14.5km/h 66% 0.00in /  0mm 142 W/m2
12:04 68.6 °F /  20.3 °C 56.8 °F /  13.8 °C 30.32in /  1026.6hPa SW 1mph /  1.6km/h 3mph /  4.8km/h 66% 0.00in /  0mm 227 W/m2
12:09 68.6 °F /  20.3 °C 56.6 °F /  13.7 °C 30.32in /  1026.6hPa SSW 1mph /  1.6km/h 6mph /  9.7km/h 65.4% 0.00in /  0mm 496 W/m2
12:14 68.9 °F /  20.5 °C 56.6 °F /  13.7 °C 30.32in /  1026.6hPa WSW 1.7mph /  2.7km/h 9mph /  14.5km/h 64.8% 0.00in /  0mm 195 W/m2
12:19 69.2 °F /  20.7 °C 56.2 °F /  13.4 °C 30.31in /  1026.3hPa SW 2.5mph /  4km/h 9mph /  14.5km/h 63.3% 0.00in /  0mm 195 W/m2
12:24 69.4 °F /  20.8 °C 56.3 °F /  13.5 °C 30.31in /  1026.3hPa SW 2.3mph /  3.7km/h 9mph /  14.5km/h 63% 0.00in /  0mm 193 W/m2
12:29 69.6 °F /  20.9 °C 56.2 °F /  13.4 °C 30.31in /  1026.3hPa SW 2.9mph /  4.7km/h 14mph /  22.5km/h 62.3% 0.00in /  0mm 193 W/m2
12:34 69.9 °F /  21.1 °C 56.3 °F /  13.5 °C 30.31in /  1026.3hPa SW 1.3mph /  2.1km/h 14mph /  22.5km/h 62% 0.00in /  0mm 142 W/m2
12:39 70.2 °F /  21.2 °C 56.3 °F /  13.5 °C 30.31in /  1026.3hPa SW 0.9mph /  1.4km/h 7mph /  11.3km/h 61.5% 0.00in /  0mm 200 W/m2
12:44 70.5 °F /  21.4 °C 56.1 °F /  13.4 °C 30.30in /  1026hPa SW 0.9mph /  1.4km/h 7mph /  11.3km/h 60.2% 0.00in /  0mm 241 W/m2
12:49 70.9 °F /  21.6 °C 56.4 °F /  13.6 °C 30.30in /  1026hPa SW 0.4mph /  0.6km/h 7mph /  11.3km/h 60.1% 0.00in /  0mm 264 W/m2
12:54 71.2 °F /  21.8 °C 56.4 °F /  13.6 °C 30.30in /  1026hPa SW 1.8mph /  2.9km/h 9mph /  14.5km/h 59.5% 0.00in /  0mm 241 W/m2
12:59 71.2 °F /  21.8 °C 56.2 °F /  13.4 °C 30.30in /  1026hPa SW 1.4mph /  2.3km/h 9mph /  14.5km/h 59% 0.00in /  0mm 132 W/m2
13:04 71.2 °F /  21.8 °C 56.2 °F /  13.4 °C 30.30in /  1026hPa SW 0.6mph /  1km/h 9mph /  14.5km/h 59.2% 0.00in /  0mm 559 W/m2
13:09 71.2 °F /  21.8 °C 56.2 °F /  13.4 °C 30.30in /  1026hPa SW 1.7mph /  2.7km/h 7mph /  11.3km/h 59.2% 0.00in /  0mm 497 W/m2
13:14 71.3 °F /  21.8 °C 56.3 °F /  13.5 °C 30.29in /  1025.6hPa WSW 0.5mph /  0.8km/h 7mph /  11.3km/h 59.1% 0.00in /  0mm 330 W/m2
13:19 71.6 °F /  22 °C 56.4 °F /  13.6 °C 30.29in /  1025.6hPa SSW 1mph /  1.6km/h 7mph /  11.3km/h 58.7% 0.00in /  0mm 420 W/m2
13:24 71.8 °F /  22.1 °C 56.3 °F /  13.5 °C 30.28in /  1025.3hPa SSW 1mph /  1.6km/h 7mph /  11.3km/h 58% 0.00in /  0mm 557 W/m2
13:29 72.1 °F /  22.3 °C 56.5 °F /  13.6 °C 30.28in /  1025.3hPa SSW 1.1mph /  1.8km/h 7mph /  11.3km/h 58% 0.00in /  0mm 536 W/m2
13:34 72.3 °F /  22.4 °C 56.8 °F /  13.8 °C 30.28in /  1025.3hPa SW 0.8mph /  1.3km/h 7mph /  11.3km/h 58% 0.00in /  0mm 478 W/m2
13:39 72.5 °F /  22.5 °C 56.7 °F /  13.7 °C 30.27in /  1024.9hPa SW 2mph /  3.2km/h 10mph /  16.1km/h 57.7% 0.00in /  0mm 162 W/m2
13:44 72.4 °F /  22.4 °C 56.3 °F /  13.5 °C 30.27in /  1024.9hPa SW 2.9mph /  4.7km/h 11mph /  17.7km/h 57% 0.00in /  0mm 348 W/m2
13:49 72.3 °F /  22.4 °C 56.3 °F /  13.5 °C 30.27in /  1024.9hPa SSW 0.9mph /  1.4km/h 11mph /  17.7km/h 57.1% 0.00in /  0mm 348 W/m2
13:54 72.4 °F /  22.4 °C 56.5 °F /  13.6 °C 30.27in /  1024.9hPa WSW 0.9mph /  1.4km/h 11mph /  17.7km/h 57.5% 0.00in /  0mm 471 W/m2
13:59 72.6 °F /  22.6 °C 56.7 °F /  13.7 °C 30.27in /  1024.9hPa SW 1.7mph /  2.7km/h 11mph /  17.7km/h 57.5% 0.00in /  0mm 473 W/m2
14:04 72.6 °F /  22.6 °C 56.6 °F /  13.7 °C 30.27in /  1024.9hPa SW 1.2mph /  1.9km/h 11mph /  17.7km/h 57.2% 0.00in /  0mm 330 W/m2
14:09 72.5 °F /  22.5 °C 56.9 °F /  13.8 °C 30.26in /  1024.6hPa WSW 1.4mph /  2.3km/h 9mph /  14.5km/h 58% 0.00in /  0mm 253 W/m2
14:14 72.5 °F /  22.5 °C 57 °F /  13.9 °C 30.26in /  1024.6hPa SW 1.8mph /  2.9km/h 11mph /  17.7km/h 58.2% 0.00in /  0mm 70 W/m2
14:19 72.6 °F /  22.6 °C 57 °F /  13.9 °C 30.26in /  1024.6hPa WSW 1.1mph /  1.8km/h 11mph /  17.7km/h 58% 0.00in /  0mm 153 W/m2
14:24 72.6 °F /  22.6 °C 56.7 °F /  13.7 °C 30.26in /  1024.6hPa SW 1.8mph /  2.9km/h 11mph /  17.7km/h 57.4% 0.00in /  0mm 318 W/m2
14:29 72.7 °F /  22.6 °C 56.4 °F /  13.6 °C 30.25in /  1024.3hPa SW 0.7mph /  1.1km/h 11mph /  17.7km/h 56.6% 0.00in /  0mm 318 W/m2
14:34 72.9 °F /  22.7 °C 56.7 °F /  13.7 °C 30.26in /  1024.6hPa SSW 1.1mph /  1.8km/h 11mph /  17.7km/h 56.9% 0.00in /  0mm 411 W/m2
14:39 73 °F /  22.8 °C 56.7 °F /  13.7 °C 30.26in /  1024.6hPa SW 0.6mph /  1km/h 9mph /  14.5km/h 56.7% 0.00in /  0mm 329 W/m2
14:44 72.8 °F /  22.7 °C 56.5 °F /  13.6 °C 30.25in /  1024.3hPa WSW 0.6mph /  1km/h 9mph /  14.5km/h 56.5% 0.00in /  0mm 232 W/m2
14:49 72.8 °F /  22.7 °C 56.7 °F /  13.7 °C 30.25in /  1024.3hPa SW 1.1mph /  1.8km/h 9mph /  14.5km/h 57% 0.00in /  0mm 197 W/m2
14:54 72.9 °F /  22.7 °C 56.6 °F /  13.7 °C 30.25in /  1024.3hPa SSW 1.5mph /  2.4km/h 9mph /  14.5km/h 56.5% 0.00in /  0mm 179 W/m2
14:59 73 °F /  22.8 °C 56.7 °F /  13.7 °C 30.25in /  1024.3hPa SSW 1.1mph /  1.8km/h 9mph /  14.5km/h 56.6% 0.00in /  0mm 76 W/m2
15:04 73 °F /  22.8 °C 56.8 °F /  13.8 °C 30.25in /  1024.3hPa SW 0.6mph /  1km/h 9mph /  14.5km/h 56.9% 0.00in /  0mm 128 W/m2
15:09 72.8 °F /  22.7 °C 56.7 °F /  13.7 °C 30.25in /  1024.3hPa SSW 0.9mph /  1.4km/h 7mph /  11.3km/h 57% 0.00in /  0mm 186 W/m2
15:14 72.8 °F /  22.7 °C 56.7 °F /  13.7 °C 30.25in /  1024.3hPa SW 1.9mph /  3.1km/h 7mph /  11.3km/h 57% 0.00in /  0mm 162 W/m2
15:19 72.8 °F /  22.7 °C 56.4 °F /  13.6 °C 30.25in /  1024.3hPa SW 0.5mph /  0.8km/h 7mph /  11.3km/h 56.4% 0.00in /  0mm 211 W/m2
15:24 72.8 °F /  22.7 °C 56.7 °F /  13.7 °C 30.25in /  1024.3hPa SW 1mph /  1.6km/h 7mph /  11.3km/h 57% 0.00in /  0mm 343 W/m2
15:29 72.6 °F /  22.6 °C 56.3 °F /  13.5 °C 30.25in /  1024.3hPa SW 1.4mph /  2.3km/h 7mph /  11.3km/h 56.6% 0.00in /  0mm 295 W/m2
15:34 72.3 °F /  22.4 °C 56.3 °F /  13.5 °C 30.25in /  1024.3hPa SW 0.6mph /  1km/h 7mph /  11.3km/h 57.3% 0.00in /  0mm 56 W/m2
15:39 71.8 °F /  22.1 °C 56.4 °F /  13.6 °C 30.25in /  1024.3hPa SW 0.8mph /  1.3km/h 5mph /  8km/h 58.3% 0.00in /  0mm 58 W/m2
15:44 71.6 °F /  22 °C 56.9 °F /  13.8 °C 30.25in /  1024.3hPa SSW 0.6mph /  1km/h 5mph /  8km/h 59.6% 0.00in /  0mm 47 W/m2
15:49 71.6 °F /  22 °C 57 °F /  13.9 °C 30.25in /  1024.3hPa SW 0.3mph /  0.5km/h 5mph /  8km/h 60% 0.00in /  0mm 39 W/m2
15:54 71.5 °F /  21.9 °C 56.9 °F /  13.8 °C 30.26in /  1024.6hPa SW 0.2mph /  0.3km/h 5mph /  8km/h 60% 0.00in /  0mm 33 W/m2
15:59 71.4 °F /  21.9 °C 56.8 °F /  13.8 °C 30.26in /  1024.6hPa SW 0.1mph /  0.2km/h 5mph /  8km/h 60% 0.00in /  0mm 30 W/m2
16:00 71.3 °F /  21.8 °C 56.7 °F /  13.7 °C 30.25in /  1024.3hPa Calm   5mph /  8km/h 60% 0.00in /  0mm 30 W/m2
16:09 71 °F /  21.7 °C 56.6 °F /  13.7 °C 30.25in /  1024.3hPa SW 0.4mph /  0.6km/h 5mph /  8km/h 60.5% 0.00in /  0mm 30 W/m2
16:14 70.9 °F /  21.6 °C 56.5 °F /  13.6 °C 30.25in /  1024.3hPa SW 1mph /  1.6km/h 7mph /  11.3km/h 60.3% 0.00in /  0mm 28 W/m2
16:19 70.7 °F /  21.5 °C 56.5 °F /  13.6 °C 30.25in /  1024.3hPa SSW 1.2mph /  1.9km/h 7mph /  11.3km/h 60.8% 0.00in /  0mm 33 W/m2
16:24 70.6 °F /  21.4 °C 56.6 °F /  13.7 °C 30.24in /  1023.9hPa SW 0.2mph /  0.3km/h 7mph /  11.3km/h 61.1% 0.00in /  0mm 37 W/m2
16:29 70.6 °F /  21.4 °C 56.9 °F /  13.8 °C 30.24in /  1023.9hPa SSW 1.2mph /  1.9km/h 7mph /  11.3km/h 61.9% 0.00in /  0mm 37 W/m2
16:34 70.5 °F /  21.4 °C 56.8 °F /  13.8 °C 30.24in /  1023.9hPa South 0.8mph /  1.3km/h 7mph /  11.3km/h 61.8% 0.00in /  0mm 35 W/m2
16:39 70.4 °F /  21.3 °C 56.8 °F /  13.8 °C 30.24in /  1023.9hPa SW 0.8mph /  1.3km/h 6mph /  9.7km/h 62% 0.00in /  0mm 35 W/m2
16:44 70.3 °F /  21.3 °C 56.7 °F /  13.7 °C 30.24in /  1023.9hPa WSW 0.4mph /  0.6km/h 6mph /  9.7km/h 62% 0.00in /  0mm 32 W/m2
16:49 70.2 °F /  21.2 °C 56.6 °F /  13.7 °C 30.24in /  1023.9hPa SW 1.1mph /  1.8km/h 6mph /  9.7km/h 62% 0.00in /  0mm 26 W/m2
16:54 70.1 °F /  21.2 °C 56.7 °F /  13.7 °C 30.24in /  1023.9hPa SSW 1mph /  1.6km/h 6mph /  9.7km/h 62.4% 0.00in /  0mm 23 W/m2
16:59 69.9 °F /  21.1 °C 56.8 °F /  13.8 °C 30.24in /  1023.9hPa SW 0.6mph /  1km/h 7mph /  11.3km/h 63% 0.00in /  0mm 21 W/m2
17:04 69.8 °F /  21 °C 56.8 °F /  13.8 °C 30.24in /  1023.9hPa SW 0.3mph /  0.5km/h 7mph /  11.3km/h 63.4% 0.00in /  0mm 21 W/m2
17:09 69.6 °F /  20.9 °C 56.9 °F /  13.8 °C 30.24in /  1023.9hPa SW 0.5mph /  0.8km/h 4mph /  6.4km/h 63.9% 0.00in /  0mm 21 W/m2
17:14 69.5 °F /  20.8 °C 56.8 °F /  13.8 °C 30.24in /  1023.9hPa Calm   4mph /  6.4km/h 64% 0.00in /  0mm 19 W/m2
17:19 69.3 °F /  20.7 °C 56.6 °F /  13.7 °C 30.24in /  1023.9hPa SW 0.4mph /  0.6km/h 4mph /  6.4km/h 64% 0.00in /  0mm 16 W/m2
17:24 69.1 °F /  20.6 °C 56.8 °F /  13.8 °C 30.25in /  1024.3hPa SW 0.2mph /  0.3km/h 4mph /  6.4km/h 64.9% 0.00in /  0mm 12 W/m2
17:29 68.9 °F /  20.5 °C 56.8 °F /  13.8 °C 30.25in /  1024.3hPa Calm   4mph /  6.4km/h 65.2% 0.00in /  0mm 9 W/m2
17:34 68.8 °F /  20.4 °C 57 °F /  13.9 °C 30.25in /  1024.3hPa Calm   4mph /  6.4km/h 66% 0.00in /  0mm 5 W/m2
17:39 68.5 °F /  20.3 °C 56.8 °F /  13.8 °C 30.25in /  1024.3hPa Calm   1mph /  1.6km/h 66.2% 0.00in /  0mm 0 W/m2
17:44 68.3 °F /  20.2 °C 56.9 °F /  13.8 °C 30.25in /  1024.3hPa Calm   2mph /  3.2km/h 67% 0.00in /  0mm 0 W/m2
17:49 68.1 °F /  20.1 °C 57 °F /  13.9 °C 30.25in /  1024.3hPa Calm   2mph /  3.2km/h 67.7% 0.00in /  0mm 0 W/m2
17:54 67.9 °F /  19.9 °C 56.9 °F /  13.8 °C 30.25in /  1024.3hPa Calm   2mph /  3.2km/h 68% 0.00in /  0mm 0 W/m2
17:59 67.7 °F /  19.8 °C 57.1 °F /  13.9 °C 30.25in /  1024.3hPa Calm   2mph /  3.2km/h 68.7% 0.00in /  0mm 0 W/m2
18:04 67.5 °F /  19.7 °C 57 °F /  13.9 °C 30.25in /  1024.3hPa Calm   2mph /  3.2km/h 69% 0.00in /  0mm 0 W/m2
18:09 67.4 °F /  19.7 °C 57.2 °F /  14 °C 30.25in /  1024.3hPa Calm     69.9% 0.00in /  0mm 0 W/m2
18:14 67.2 °F /  19.6 °C 57.1 °F /  13.9 °C 30.25in /  1024.3hPa Calm     70% 0.00in /  0mm 0 W/m2
18:19 67.1 °F /  19.5 °C 57.3 °F /  14.1 °C 30.25in /  1024.3hPa Calm     70.8% 0.00in /  0mm 0 W/m2
18:24 66.9 °F /  19.4 °C 57.4 °F /  14.1 °C 30.25in /  1024.3hPa SW 0.1mph /  0.2km/h 3mph /  4.8km/h 71.5% 0.00in /  0mm 0 W/m2
18:29 66.7 °F /  19.3 °C 57.4 °F /  14.1 °C 30.26in /  1024.6hPa Calm   3mph /  4.8km/h 72% 0.00in /  0mm 0 W/m2
18:34 66.5 °F /  19.2 °C 57.6 °F /  14.2 °C 30.26in /  1024.6hPa Calm   3mph /  4.8km/h 72.9% 0.00in /  0mm 0 W/m2
18:39 66.4 °F /  19.1 °C 57.8 °F /  14.3 °C 30.26in /  1024.6hPa Calm   1mph /  1.6km/h 73.9% 0.00in /  0mm 0 W/m2
18:44 66.3 °F /  19.1 °C 58 °F /  14.4 °C 30.26in /  1024.6hPa SW 0.1mph /  0.2km/h 2mph /  3.2km/h 74.7% 0.00in /  0mm 0 W/m2
18:49 66.2 °F /  19 °C 58.1 °F /  14.5 °C 30.26in /  1024.6hPa SW 0.1mph /  0.2km/h 3mph /  4.8km/h 75% 0.00in /  0mm 0 W/m2
18:54 66.1 °F /  18.9 °C 58.2 °F /  14.6 °C 30.26in /  1024.6hPa SW 0.1mph /  0.2km/h 3mph /  4.8km/h 75.6% 0.00in /  0mm 0 W/m2
18:59 66 °F /  18.9 °C 58.2 °F /  14.6 °C 30.26in /  1024.6hPa Calm   3mph /  4.8km/h 76% 0.00in /  0mm 0 W/m2
19:04 65.9 °F /  18.8 °C 58.3 °F /  14.6 °C 30.26in /  1024.6hPa Calm   3mph /  4.8km/h 76.6% 0.00in /  0mm 0 W/m2
19:09 65.7 °F /  18.7 °C 58.3 °F /  14.6 °C 30.27in /  1024.9hPa SW 0.1mph /  0.2km/h 3mph /  4.8km/h 77% 0.00in /  0mm 0 W/m2
19:14 65.4 °F /  18.6 °C 58.3 °F /  14.6 °C 30.27in /  1024.9hPa Calm   3mph /  4.8km/h 77.6% 0.00in /  0mm 0 W/m2
19:19 65.3 °F /  18.5 °C 58.3 °F /  14.6 °C 30.27in /  1024.9hPa Calm   3mph /  4.8km/h 78% 0.00in /  0mm 0 W/m2
19:24 65.2 °F /  18.4 °C 58.4 °F /  14.7 °C 30.27in /  1024.9hPa Calm   3mph /  4.8km/h 78.7% 0.00in /  0mm 0 W/m2
19:29 65.2 °F /  18.4 °C 58.5 °F /  14.7 °C 30.27in /  1024.9hPa SSW 0.1mph /  0.2km/h 4mph /  6.4km/h 79% 0.00in /  0mm 0 W/m2
19:34 65 °F /  18.3 °C 58.3 °F /  14.6 °C 30.27in /  1024.9hPa SSW 0.1mph /  0.2km/h 4mph /  6.4km/h 79% 0.00in /  0mm 0 W/m2
19:39 64.8 °F /  18.2 °C 58.1 °F /  14.5 °C 30.27in /  1024.9hPa Calm   1mph /  1.6km/h 79% 0.00in /  0mm 0 W/m2
19:41 64.7 °F /  18.2 °C 58.2 °F /  14.6 °C 30.26in /  1024.6hPa Calm   1mph /  1.6km/h 79.7% 0.00in /  0mm 0 W/m2
20:09 63.5 °F /  17.5 °C 57.9 °F /  14.4 °C 30.27in /  1024.9hPa Calm     82% 0.00in /  0mm 0 W/m2
20:14 63.3 °F /  17.4 °C 57.7 °F /  14.3 °C 30.27in /  1024.9hPa Calm   2mph /  3.2km/h 82% 0.00in /  0mm 0 W/m2
20:19 63.2 °F /  17.3 °C 57.6 °F /  14.2 °C 30.27in /  1024.9hPa Calm   2mph /  3.2km/h 82.1% 0.00in /  0mm 0 W/m2
20:24 63.1 °F /  17.3 °C 57.8 °F /  14.3 °C 30.27in /  1024.9hPa Calm   2mph /  3.2km/h 83% 0.00in /  0mm 0 W/m2
20:29 62.9 °F /  17.2 °C 57.7 °F /  14.3 °C 30.27in /  1024.9hPa Calm   2mph /  3.2km/h 83% 0.00in /  0mm 0 W/m2
20:34 62.8 °F /  17.1 °C 57.6 °F /  14.2 °C 30.27in /  1024.9hPa Calm   2mph /  3.2km/h 83.2% 0.00in /  0mm 0 W/m2
20:39 62.7 °F /  17.1 °C 57.7 °F /  14.3 °C 30.27in /  1024.9hPa SSW 0.4mph /  0.6km/h 4mph /  6.4km/h 83.8% 0.00in /  0mm 0 W/m2
20:44 62.6 °F /  17 °C 57.7 °F /  14.3 °C 30.27in /  1024.9hPa Calm   4mph /  6.4km/h 84% 0.00in /  0mm 0 W/m2
20:49 62.4 °F /  16.9 °C 57.6 °F /  14.2 °C 30.27in /  1024.9hPa SSW 0.1mph /  0.2km/h 4mph /  6.4km/h 84.3% 0.00in /  0mm 0 W/m2
20:54 62.3 °F /  16.8 °C 57.8 °F /  14.3 °C 30.27in /  1024.9hPa SSW 0.3mph /  0.5km/h 4mph /  6.4km/h 85% 0.00in /  0mm 0 W/m2
20:59 62.2 °F /  16.8 °C 57.7 °F /  14.3 °C 30.27in /  1024.9hPa SSW 0.3mph /  0.5km/h 4mph /  6.4km/h 85% 0.00in /  0mm 0 W/m2
21:04 62.2 °F /  16.8 °C 57.6 °F /  14.2 °C 30.27in /  1024.9hPa SSW 0.1mph /  0.2km/h 4mph /  6.4km/h 85% 0.00in /  0mm 0 W/m2
21:07 62.1 °F /  16.7 °C 57.6 °F /  14.2 °C 30.27in /  1024.9hPa SSW 0.9mph /  1.4km/h 4mph /  6.4km/h 85% 0.00in /  0mm 0 W/m2
22:00 61.1 °F /  16.2 °C 57.5 °F /  14.2 °C 30.27in /  1024.9hPa Calm   3mph /  4.8km/h 88% 0.00in /  0mm 0 W/m2
22:30 60.5 °F /  15.8 °C 57.3 °F /  14.1 °C 30.26in /  1024.6hPa Calm   4mph /  6.4km/h 89% 0.00in /  0mm 0 W/m2
23:00 60.1 °F /  15.6 °C 57.2 °F /  14 °C 30.26in /  1024.6hPa Calm     90% 0.00in /  0mm 0 W/m2
23:30 59.8 °F /  15.4 °C 57.2 °F /  14 °C 30.25in /  1024.3hPa Calm   1mph /  1.6km/h 91% 0.00in /  0mm 0 W/m2
Hartford County Weather
Compliments of Weather Underground - 4 mb